WMKN/TGG METAR and TAF weather

Enter ICAO airport designator
Station Type Date Time Source
WMKN METAR 2019/06/27 10:00 UTC NOAA

WMKN 271000Z VRB04KT 9999 FEW020 BKN300 30/26 Q1007


Station Type Date Time Source
WMKN Decoded METAR 2019/06/27 10:00 UTC NOAA

Station name not available
Jun 27, 2019 - 06:00 AM EDT / 2019.06.27 1000 UTC
Wind: Variable at 5 MPH (4 KT):0
Visibility: greater than 7 mile(s):0
Sky conditions: mostly cloudy
Temperature: 86 F (30 C)
Heat index: 99.3 F (37.4 C):1
Dew Point: 78 F (26 C)
Relative Humidity: 79%
Pressure (altimeter): 29.74 in. Hg (1007 hPa)
ob: WMKN 271000Z VRB04KT 9999 FEW020 BKN300 30/26 Q1007
cycle: 10

Station Type Date Time Source
WMKN TAF 2019/06/27 06:00 UTC NOAA

TAF WMKN 270500Z 2706/2806 20005KT 9999 FEW020
TEMPO 2708/2710 7000 -TSRA FEW010 FEW017CB SCT020

Example: see airport list